JFA82B EGLF-EDDN
Flight info
| Callsign | JFA82B |
|---|---|
| Flight time | 1h 54m |
| Altitude | 23000 |
| Route | HAZEL L620 MID DCT ROKKE M140 DVR L9 KONAN UL607 SPI T180 TOBOP DCT EMGOD L607 UBIDU L984 KOMIB DCT DODAS DODAS1V |
| Aircraft | PC12/L-SDFGRWY/S |
Departure
| Time | 2026-05-08 15:22 |
|---|---|
| Airport | Farnborough Airport (EGLF) |
Arrival
| Time | 2026-05-08 17:16 |
|---|---|
| Airport | Nuremberg Airport (EDDN) |
| Time | Latitude | Longitude | Altitude | Speed | Heading |
|---|---|---|---|---|---|
| 2026-05-08 15:15 | 51.28171 | -0.77611 | 218 ft | 0 kts | 107° |
| 2026-05-08 15:17 | 51.28179 | -0.77585 | 218 ft | 8 kts | 7° |
| 2026-05-08 15:17 | 51.28154 | -0.77719 | 219 ft | 21 kts | 225° |
| 2026-05-08 15:17 | 51.27996 | -0.77862 | 220 ft | 30 kts | 188° |
| 2026-05-08 15:18 | 51.27796 | -0.78048 | 221 ft | 38 kts | 216° |
| 2026-05-08 15:18 | 51.27655 | -0.78234 | 224 ft | 21 kts | 233° |
| 2026-05-08 15:18 | 51.27518 | -0.78433 | 224 ft | 25 kts | 221° |
| 2026-05-08 15:18 | 51.27368 | -0.78643 | 227 ft | 17 kts | 223° |
| 2026-05-08 15:19 | 51.27341 | -0.78682 | 228 ft | 0 kts | 227° |
| 2026-05-08 15:19 | 51.27310 | -0.78721 | 229 ft | 11 kts | 217° |
| 2026-05-08 15:19 | 51.27299 | -0.78728 | 229 ft | 0 kts | 144° |
| 2026-05-08 15:21 | 51.27246 | -0.78670 | 229 ft | 14 kts | 119° |
| 2026-05-08 15:21 | 51.27300 | -0.78470 | 226 ft | 33 kts | 61° |
| 2026-05-08 15:21 | 51.27489 | -0.77912 | 228 ft | 80 kts | 62° |
| 2026-05-08 15:21 | 51.27812 | -0.76963 | 373 ft | 111 kts | 63° |
| 2026-05-08 15:22 | 51.28247 | -0.75808 | 738 ft | 130 kts | 62° |
| 2026-05-08 15:22 | 51.28673 | -0.74493 | 1226 ft | 136 kts | 68° |
| 2026-05-08 15:22 | 51.29105 | -0.73116 | 1746 ft | 142 kts | 66° |
| 2026-05-08 15:22 | 51.29581 | -0.71652 | 2234 ft | 156 kts | 65° |
| 2026-05-08 15:23 | 51.30054 | -0.70034 | 2729 ft | 165 kts | 79° |
| 2026-05-08 15:23 | 51.30063 | -0.68119 | 3002 ft | 183 kts | 103° |
| 2026-05-08 15:23 | 51.29570 | -0.66405 | 2992 ft | 168 kts | 129° |
| 2026-05-08 15:23 | 51.28675 | -0.65182 | 2994 ft | 167 kts | 152° |
| 2026-05-08 15:24 | 51.27644 | -0.64344 | 2991 ft | 165 kts | 153° |
| 2026-05-08 15:24 | 51.26553 | -0.63755 | 2991 ft | 168 kts | 171° |
| 2026-05-08 15:24 | 51.25319 | -0.63883 | 3003 ft | 192 kts | 192° |
| 2026-05-08 15:24 | 51.24092 | -0.64928 | 3012 ft | 207 kts | 218° |
| 2026-05-08 15:25 | 51.23234 | -0.66789 | 3016 ft | 214 kts | 239° |
| 2026-05-08 15:25 | 51.22542 | -0.68930 | 3011 ft | 220 kts | 240° |
| 2026-05-08 15:25 | 51.21832 | -0.71098 | 3009 ft | 220 kts | 239° |
| 2026-05-08 15:25 | 51.21118 | -0.73254 | 3010 ft | 219 kts | 238° |
| 2026-05-08 15:26 | 51.20285 | -0.75274 | 3006 ft | 217 kts | 232° |
| 2026-05-08 15:26 | 51.19411 | -0.77252 | 3002 ft | 218 kts | 232° |
| 2026-05-08 15:26 | 51.18550 | -0.79231 | 3002 ft | 216 kts | 232° |
| 2026-05-08 15:26 | 51.17692 | -0.81205 | 3012 ft | 218 kts | 232° |
| 2026-05-08 15:27 | 51.16829 | -0.83182 | 2999 ft | 219 kts | 232° |
| 2026-05-08 15:27 | 51.15959 | -0.85173 | 3004 ft | 215 kts | 231° |
| 2026-05-08 15:27 | 51.15108 | -0.87120 | 3003 ft | 215 kts | 231° |
| 2026-05-08 15:27 | 51.14255 | -0.89071 | 2996 ft | 214 kts | 232° |
| 2026-05-08 15:28 | 51.13411 | -0.91006 | 2999 ft | 212 kts | 231° |
| 2026-05-08 15:28 | 51.12589 | -0.92964 | 2994 ft | 213 kts | 238° |
| 2026-05-08 15:28 | 51.11967 | -0.95119 | 2993 ft | 217 kts | 243° |
| 2026-05-08 15:28 | 51.11253 | -0.97207 | 2990 ft | 210 kts | 229° |
| 2026-05-08 15:29 | 51.10202 | -0.98787 | 2991 ft | 209 kts | 211° |
| 2026-05-08 15:29 | 51.08908 | -0.99764 | 2990 ft | 202 kts | 194° |
| 2026-05-08 15:29 | 51.07513 | -1.00060 | 2996 ft | 206 kts | 177° |
| 2026-05-08 15:29 | 51.06110 | -0.99779 | 2994 ft | 198 kts | 169° |
| 2026-05-08 15:30 | 51.04729 | -0.99443 | 2997 ft | 204 kts | 169° |
| 2026-05-08 15:30 | 51.03403 | -0.98701 | 2988 ft | 200 kts | 150° |
| 2026-05-08 15:30 | 51.02342 | -0.97302 | 2984 ft | 202 kts | 132° |
| 2026-05-08 15:30 | 51.01610 | -0.95347 | 2993 ft | 210 kts | 112° |
| 2026-05-08 15:31 | 51.01348 | -0.93064 | 2994 ft | 214 kts | 93° |
| 2026-05-08 15:31 | 51.01574 | -0.90752 | 3232 ft | 206 kts | 79° |
| 2026-05-08 15:31 | 51.01889 | -0.88533 | 3756 ft | 206 kts | 81° |
| 2026-05-08 15:31 | 51.02180 | -0.86337 | 4372 ft | 203 kts | 81° |
| 2026-05-08 15:32 | 51.02480 | -0.84103 | 4889 ft | 210 kts | 81° |
| 2026-05-08 15:32 | 51.02793 | -0.81807 | 5393 ft | 215 kts | 80° |
| 2026-05-08 15:32 | 51.03112 | -0.79462 | 5906 ft | 219 kts | 79° |
| 2026-05-08 15:32 | 51.03438 | -0.77071 | 6422 ft | 222 kts | 79° |
| 2026-05-08 15:33 | 51.03764 | -0.74660 | 6911 ft | 225 kts | 80° |
| 2026-05-08 15:33 | 51.04093 | -0.72225 | 7412 ft | 226 kts | 80° |
| 2026-05-08 15:33 | 51.04423 | -0.69766 | 7909 ft | 228 kts | 79° |
| 2026-05-08 15:33 | 51.04759 | -0.67262 | 8319 ft | 235 kts | 80° |
| 2026-05-08 15:34 | 51.05101 | -0.64698 | 8707 ft | 239 kts | 80° |
| 2026-05-08 15:34 | 51.05411 | -0.62100 | 9101 ft | 240 kts | 87° |
| 2026-05-08 15:34 | 51.05476 | -0.59444 | 9501 ft | 241 kts | 90° |
| 2026-05-08 15:34 | 51.05542 | -0.56768 | 9904 ft | 243 kts | 90° |
| 2026-05-08 15:35 | 51.05619 | -0.54067 | 10283 ft | 246 kts | 90° |
| 2026-05-08 15:35 | 51.05692 | -0.51341 | 10651 ft | 248 kts | 90° |
| 2026-05-08 15:35 | 51.05760 | -0.48599 | 11028 ft | 248 kts | 90° |
| 2026-05-08 15:35 | 51.05829 | -0.45903 | 11557 ft | 243 kts | 90° |
| 2026-05-08 15:36 | 51.05898 | -0.43222 | 12071 ft | 242 kts | 90° |
| 2026-05-08 15:36 | 51.05971 | -0.40551 | 12582 ft | 241 kts | 87° |
| 2026-05-08 15:36 | 51.06367 | -0.37956 | 13098 ft | 243 kts | 73° |
| 2026-05-08 15:36 | 51.06946 | -0.35426 | 13629 ft | 244 kts | 71° |
| 2026-05-08 15:37 | 51.07539 | -0.32897 | 14134 ft | 245 kts | 71° |
| 2026-05-08 15:37 | 51.08135 | -0.30359 | 14614 ft | 245 kts | 71° |
| 2026-05-08 15:37 | 51.08736 | -0.27817 | 15103 ft | 246 kts | 71° |
| 2026-05-08 15:37 | 51.09342 | -0.25267 | 15598 ft | 247 kts | 71° |
| 2026-05-08 15:38 | 51.09952 | -0.22705 | 16097 ft | 248 kts | 71° |
| 2026-05-08 15:38 | 51.10568 | -0.20138 | 16610 ft | 249 kts | 71° |
| 2026-05-08 15:38 | 51.10946 | -0.17490 | 17113 ft | 245 kts | 93° |
| 2026-05-08 15:38 | 51.10742 | -0.14851 | 17639 ft | 243 kts | 101° |
| 2026-05-08 15:39 | 51.10585 | -0.12166 | 18177 ft | 245 kts | 94° |
| 2026-05-08 15:39 | 51.10610 | -0.09455 | 18673 ft | 246 kts | 90° |
| 2026-05-08 15:39 | 51.10672 | -0.06735 | 19140 ft | 246 kts | 90° |
| 2026-05-08 15:39 | 51.10695 | -0.04000 | 19618 ft | 248 kts | 91° |
| 2026-05-08 15:40 | 51.10703 | -0.01235 | 20105 ft | 251 kts | 90° |
| 2026-05-08 15:40 | 51.10720 | 0.01560 | 20598 ft | 254 kts | 89° |
| 2026-05-08 15:40 | 51.10741 | 0.04371 | 21097 ft | 255 kts | 89° |
| 2026-05-08 15:40 | 51.10759 | 0.07208 | 21476 ft | 259 kts | 89° |
| 2026-05-08 15:41 | 51.10776 | 0.10096 | 21869 ft | 263 kts | 89° |
| 2026-05-08 15:41 | 51.10791 | 0.13015 | 22265 ft | 265 kts | 88° |
| 2026-05-08 15:41 | 51.10807 | 0.15953 | 22669 ft | 266 kts | 88° |
| 2026-05-08 15:41 | 51.10823 | 0.18916 | 23031 ft | 270 kts | 88° |
| 2026-05-08 15:42 | 51.10839 | 0.21971 | 23082 ft | 282 kts | 88° |
| 2026-05-08 15:42 | 51.10853 | 0.25140 | 23086 ft | 290 kts | 88° |
| 2026-05-08 15:42 | 51.10866 | 0.28377 | 23084 ft | 295 kts | 88° |
| 2026-05-08 15:42 | 51.10879 | 0.31661 | 23086 ft | 298 kts | 88° |
| 2026-05-08 15:43 | 51.10891 | 0.34960 | 23083 ft | 299 kts | 88° |
| 2026-05-08 15:43 | 51.10903 | 0.38273 | 23085 ft | 300 kts | 88° |
| 2026-05-08 15:43 | 51.10914 | 0.41593 | 23086 ft | 300 kts | 88° |
| 2026-05-08 15:43 | 51.10923 | 0.44909 | 23086 ft | 300 kts | 88° |
| 2026-05-08 15:44 | 51.10932 | 0.48224 | 23083 ft | 299 kts | 88° |
| 2026-05-08 15:44 | 51.10940 | 0.51539 | 23088 ft | 299 kts | 88° |
| 2026-05-08 15:44 | 51.10947 | 0.54847 | 23085 ft | 299 kts | 88° |
| 2026-05-08 15:44 | 51.10953 | 0.58156 | 23087 ft | 299 kts | 88° |
| 2026-05-08 15:45 | 51.10958 | 0.61462 | 23085 ft | 299 kts | 88° |
| 2026-05-08 15:45 | 51.10962 | 0.64767 | 23086 ft | 299 kts | 88° |
| 2026-05-08 15:45 | 51.10965 | 0.68070 | 23086 ft | 298 kts | 88° |
| 2026-05-08 15:45 | 51.10968 | 0.71370 | 23086 ft | 298 kts | 88° |
| 2026-05-08 15:46 | 51.10969 | 0.74666 | 23100 ft | 298 kts | 88° |
| 2026-05-08 15:46 | 51.10969 | 0.77962 | 23103 ft | 297 kts | 88° |
| 2026-05-08 15:46 | 51.10969 | 0.81243 | 23106 ft | 296 kts | 88° |
| 2026-05-08 15:46 | 51.10967 | 0.84523 | 23108 ft | 296 kts | 88° |
| 2026-05-08 15:47 | 51.10965 | 0.87800 | 23107 ft | 296 kts | 88° |
| 2026-05-08 15:47 | 51.10962 | 0.91074 | 23107 ft | 296 kts | 88° |
| 2026-05-08 15:47 | 51.10957 | 0.94344 | 23108 ft | 296 kts | 88° |
| 2026-05-08 15:47 | 51.10952 | 0.97615 | 23108 ft | 296 kts | 88° |
| 2026-05-08 15:48 | 51.10939 | 1.04153 | 23104 ft | 295 kts | 88° |
| 2026-05-08 15:48 | 51.10932 | 1.07415 | 23108 ft | 295 kts | 88° |
| 2026-05-08 15:48 | 51.10923 | 1.10682 | 23104 ft | 295 kts | 88° |
| 2026-05-08 15:49 | 51.10913 | 1.13943 | 23104 ft | 295 kts | 88° |
| 2026-05-08 15:49 | 51.10903 | 1.17202 | 23102 ft | 294 kts | 88° |
| 2026-05-08 15:49 | 51.10892 | 1.20462 | 23107 ft | 295 kts | 88° |
| 2026-05-08 15:49 | 51.10879 | 1.23725 | 23105 ft | 295 kts | 88° |
| 2026-05-08 15:50 | 51.10866 | 1.26948 | 23102 ft | 295 kts | 88° |
| 2026-05-08 15:50 | 51.10851 | 1.30206 | 23099 ft | 294 kts | 89° |
| 2026-05-08 15:50 | 51.10837 | 1.33462 | 23096 ft | 294 kts | 89° |
| 2026-05-08 15:50 | 51.10821 | 1.36716 | 23097 ft | 294 kts | 89° |
| 2026-05-08 15:51 | 51.10804 | 1.39969 | 23099 ft | 294 kts | 89° |
| 2026-05-08 15:51 | 51.10786 | 1.43221 | 23097 ft | 294 kts | 89° |
| 2026-05-08 15:51 | 51.10768 | 1.46478 | 23096 ft | 294 kts | 89° |
| 2026-05-08 15:51 | 51.10748 | 1.49726 | 23095 ft | 294 kts | 89° |
| 2026-05-08 15:52 | 51.10727 | 1.52976 | 23096 ft | 294 kts | 89° |
| 2026-05-08 15:52 | 51.10706 | 1.56228 | 23094 ft | 294 kts | 89° |
| 2026-05-08 15:52 | 51.10684 | 1.59474 | 23092 ft | 293 kts | 89° |
| 2026-05-08 15:52 | 51.10661 | 1.62720 | 23092 ft | 293 kts | 89° |
| 2026-05-08 15:53 | 51.10637 | 1.65968 | 23094 ft | 294 kts | 89° |
| 2026-05-08 15:53 | 51.10612 | 1.69214 | 23092 ft | 294 kts | 89° |
| 2026-05-08 15:53 | 51.10586 | 1.72463 | 23090 ft | 294 kts | 89° |
| 2026-05-08 15:53 | 51.10560 | 1.75710 | 23089 ft | 293 kts | 89° |
| 2026-05-08 15:54 | 51.10532 | 1.78957 | 23089 ft | 294 kts | 89° |
| 2026-05-08 15:54 | 51.10503 | 1.82213 | 23089 ft | 295 kts | 90° |
| 2026-05-08 15:54 | 51.10474 | 1.85478 | 23089 ft | 296 kts | 89° |
| 2026-05-08 15:54 | 51.10444 | 1.88751 | 23087 ft | 296 kts | 90° |
| 2026-05-08 15:55 | 51.10412 | 1.92022 | 23088 ft | 295 kts | 90° |
| 2026-05-08 15:55 | 51.10346 | 1.98544 | 23087 ft | 294 kts | 90° |
| 2026-05-08 15:55 | 51.10313 | 2.01748 | 23084 ft | 293 kts | 90° |
| 2026-05-08 15:56 | 51.10278 | 2.05030 | 23085 ft | 293 kts | 90° |
| 2026-05-08 15:56 | 51.10243 | 2.08231 | 23087 ft | 294 kts | 90° |
| 2026-05-08 15:56 | 51.10206 | 2.11484 | 23091 ft | 294 kts | 90° |
| 2026-05-08 15:56 | 51.10168 | 2.14748 | 23091 ft | 295 kts | 90° |
| 2026-05-08 15:57 | 51.10130 | 2.18015 | 23095 ft | 295 kts | 90° |
| 2026-05-08 15:57 | 51.10090 | 2.21277 | 23095 ft | 294 kts | 90° |
| 2026-05-08 15:57 | 51.10050 | 2.24523 | 23093 ft | 294 kts | 90° |
| 2026-05-08 15:57 | 51.10009 | 2.27765 | 23092 ft | 293 kts | 91° |
| 2026-05-08 15:58 | 51.09967 | 2.31000 | 23093 ft | 292 kts | 91° |
| 2026-05-08 15:58 | 51.09924 | 2.34238 | 23095 ft | 293 kts | 91° |
| 2026-05-08 15:58 | 51.09880 | 2.37479 | 23094 ft | 293 kts | 91° |
| 2026-05-08 15:58 | 51.09836 | 2.40716 | 23100 ft | 293 kts | 91° |
| 2026-05-08 15:59 | 51.09790 | 2.43953 | 23101 ft | 293 kts | 91° |
| 2026-05-08 15:59 | 51.09744 | 2.47203 | 23099 ft | 294 kts | 91° |
| 2026-05-08 15:59 | 51.09696 | 2.50457 | 23099 ft | 295 kts | 91° |
| 2026-05-08 15:59 | 51.09648 | 2.53725 | 23104 ft | 295 kts | 91° |
| 2026-05-08 16:00 | 51.09598 | 2.56985 | 23107 ft | 295 kts | 91° |
| 2026-05-08 16:00 | 51.09548 | 2.60236 | 23100 ft | 295 kts | 91° |
| 2026-05-08 16:00 | 51.09497 | 2.63497 | 23103 ft | 294 kts | 91° |
| 2026-05-08 16:00 | 51.09203 | 2.66696 | 23093 ft | 293 kts | 106° |
| 2026-05-08 16:01 | 51.08630 | 2.69805 | 23098 ft | 294 kts | 107° |
| 2026-05-08 16:01 | 51.08065 | 2.72929 | 23092 ft | 294 kts | 106° |
| 2026-05-08 16:01 | 51.07507 | 2.76055 | 23092 ft | 294 kts | 106° |
| 2026-05-08 16:01 | 51.06942 | 2.79175 | 23094 ft | 293 kts | 107° |
| 2026-05-08 16:02 | 51.06566 | 2.81240 | 23096 ft | 294 kts | 107° |
| 2026-05-08 16:02 | 51.05998 | 2.84362 | 23095 ft | 294 kts | 106° |
| 2026-05-08 16:02 | 51.05429 | 2.87492 | 23106 ft | 295 kts | 106° |
| 2026-05-08 16:02 | 51.04858 | 2.90624 | 23111 ft | 296 kts | 106° |
| 2026-05-08 16:03 | 51.04284 | 2.93768 | 23111 ft | 296 kts | 107° |
| 2026-05-08 16:03 | 51.03712 | 2.96900 | 23103 ft | 295 kts | 107° |
| 2026-05-08 16:03 | 51.03140 | 3.00027 | 23103 ft | 294 kts | 107° |
| 2026-05-08 16:03 | 51.02569 | 3.03137 | 23104 ft | 293 kts | 107° |
| 2026-05-08 16:04 | 51.01997 | 3.06243 | 23102 ft | 293 kts | 107° |
| 2026-05-08 16:04 | 51.01426 | 3.09344 | 23101 ft | 292 kts | 107° |
| 2026-05-08 16:04 | 51.00856 | 3.12440 | 23102 ft | 292 kts | 107° |
| 2026-05-08 16:04 | 51.00284 | 3.15534 | 23104 ft | 293 kts | 107° |
| 2026-05-08 16:05 | 50.99710 | 3.18637 | 23102 ft | 293 kts | 107° |
| 2026-05-08 16:05 | 50.99134 | 3.21744 | 23100 ft | 294 kts | 107° |
| 2026-05-08 16:05 | 50.98557 | 3.24853 | 23101 ft | 294 kts | 107° |
| 2026-05-08 16:05 | 50.97979 | 3.27963 | 23098 ft | 294 kts | 107° |
| 2026-05-08 16:06 | 50.97399 | 3.31072 | 23097 ft | 294 kts | 107° |
| 2026-05-08 16:06 | 50.96819 | 3.34181 | 23095 ft | 294 kts | 107° |
| 2026-05-08 16:06 | 50.96238 | 3.37289 | 23094 ft | 294 kts | 107° |
| 2026-05-08 16:06 | 50.95657 | 3.40393 | 23092 ft | 294 kts | 107° |
| 2026-05-08 16:07 | 50.95075 | 3.43498 | 23090 ft | 294 kts | 107° |
| 2026-05-08 16:07 | 50.94499 | 3.46565 | 23090 ft | 294 kts | 107° |
| 2026-05-08 16:07 | 50.93916 | 3.49666 | 23090 ft | 294 kts | 107° |
| 2026-05-08 16:07 | 50.93330 | 3.52772 | 23094 ft | 294 kts | 107° |
| 2026-05-08 16:08 | 50.92745 | 3.55872 | 23092 ft | 294 kts | 107° |
| 2026-05-08 16:08 | 50.92151 | 3.59016 | 23094 ft | 294 kts | 107° |
| 2026-05-08 16:08 | 50.91571 | 3.62077 | 23097 ft | 294 kts | 107° |
| 2026-05-08 16:08 | 50.90982 | 3.65181 | 23093 ft | 294 kts | 107° |
| 2026-05-08 16:09 | 50.90385 | 3.68282 | 23098 ft | 294 kts | 108° |
| 2026-05-08 16:09 | 50.89786 | 3.71383 | 23099 ft | 294 kts | 108° |
| 2026-05-08 16:09 | 50.89189 | 3.74484 | 23092 ft | 294 kts | 108° |
| 2026-05-08 16:09 | 50.88591 | 3.77587 | 23092 ft | 294 kts | 108° |
| 2026-05-08 16:10 | 50.87992 | 3.80685 | 23093 ft | 294 kts | 108° |
| 2026-05-08 16:10 | 50.87392 | 3.83782 | 23095 ft | 294 kts | 108° |
| 2026-05-08 16:10 | 50.86791 | 3.86881 | 23094 ft | 294 kts | 108° |
| 2026-05-08 16:10 | 50.86189 | 3.89980 | 23100 ft | 294 kts | 108° |
| 2026-05-08 16:11 | 50.85587 | 3.93075 | 23100 ft | 294 kts | 108° |
| 2026-05-08 16:11 | 50.84984 | 3.96173 | 23094 ft | 294 kts | 108° |
| 2026-05-08 16:11 | 50.84380 | 3.99267 | 23094 ft | 294 kts | 108° |
| 2026-05-08 16:11 | 50.83775 | 4.02359 | 23094 ft | 294 kts | 108° |
| 2026-05-08 16:12 | 50.83170 | 4.05452 | 23095 ft | 294 kts | 108° |
| 2026-05-08 16:12 | 50.82563 | 4.08545 | 23095 ft | 294 kts | 108° |
| 2026-05-08 16:12 | 50.81956 | 4.11633 | 23089 ft | 294 kts | 108° |
| 2026-05-08 16:12 | 50.81349 | 4.14723 | 23089 ft | 294 kts | 108° |
| 2026-05-08 16:13 | 50.80740 | 4.17811 | 23090 ft | 294 kts | 108° |
| 2026-05-08 16:13 | 50.80131 | 4.20899 | 23091 ft | 294 kts | 108° |
| 2026-05-08 16:13 | 50.79519 | 4.23989 | 23092 ft | 294 kts | 108° |
| 2026-05-08 16:13 | 50.78909 | 4.27073 | 23089 ft | 294 kts | 108° |
| 2026-05-08 16:14 | 50.78296 | 4.30162 | 23087 ft | 294 kts | 108° |
| 2026-05-08 16:14 | 50.77684 | 4.33246 | 23087 ft | 294 kts | 108° |
| 2026-05-08 16:14 | 50.77070 | 4.36330 | 23088 ft | 294 kts | 108° |
| 2026-05-08 16:14 | 50.76456 | 4.39413 | 23090 ft | 294 kts | 108° |
| 2026-05-08 16:15 | 50.75840 | 4.42495 | 23087 ft | 294 kts | 108° |
| 2026-05-08 16:15 | 50.75225 | 4.45572 | 23089 ft | 294 kts | 108° |
| 2026-05-08 16:15 | 50.74617 | 4.48613 | 23093 ft | 294 kts | 108° |
| 2026-05-08 16:15 | 50.73999 | 4.51691 | 23091 ft | 294 kts | 108° |
| 2026-05-08 16:16 | 50.73380 | 4.54773 | 23091 ft | 294 kts | 109° |
| 2026-05-08 16:16 | 50.72761 | 4.57850 | 23088 ft | 294 kts | 109° |
| 2026-05-08 16:16 | 50.72142 | 4.60927 | 23093 ft | 294 kts | 108° |
| 2026-05-08 16:16 | 50.71541 | 4.64015 | 23096 ft | 294 kts | 108° |
| 2026-05-08 16:17 | 50.70954 | 4.67113 | 23095 ft | 294 kts | 108° |
| 2026-05-08 16:17 | 50.70358 | 4.70207 | 23093 ft | 294 kts | 108° |
| 2026-05-08 16:17 | 50.69755 | 4.73293 | 23096 ft | 294 kts | 108° |
| 2026-05-08 16:17 | 50.69154 | 4.76381 | 23096 ft | 295 kts | 108° |
| 2026-05-08 16:18 | 50.68554 | 4.79470 | 23096 ft | 295 kts | 108° |
| 2026-05-08 16:18 | 50.67953 | 4.82556 | 23097 ft | 294 kts | 108° |
| 2026-05-08 16:18 | 50.67350 | 4.85640 | 23105 ft | 294 kts | 108° |
| 2026-05-08 16:18 | 50.66747 | 4.88723 | 23104 ft | 294 kts | 108° |
| 2026-05-08 16:19 | 50.66144 | 4.91802 | 23104 ft | 294 kts | 108° |
| 2026-05-08 16:19 | 50.65524 | 4.94878 | 23103 ft | 294 kts | 109° |
| 2026-05-08 16:19 | 50.64886 | 4.97939 | 23101 ft | 294 kts | 109° |
| 2026-05-08 16:19 | 50.64254 | 5.01001 | 23097 ft | 294 kts | 109° |
| 2026-05-08 16:20 | 50.63627 | 5.04072 | 23099 ft | 294 kts | 109° |
| 2026-05-08 16:20 | 50.63006 | 5.07101 | 23096 ft | 294 kts | 109° |
| 2026-05-08 16:20 | 50.62374 | 5.10161 | 23094 ft | 294 kts | 109° |
| 2026-05-08 16:20 | 50.61742 | 5.13223 | 23092 ft | 294 kts | 109° |
| 2026-05-08 16:21 | 50.61110 | 5.16285 | 23091 ft | 294 kts | 109° |
| 2026-05-08 16:21 | 50.60476 | 5.19348 | 23090 ft | 294 kts | 109° |
| 2026-05-08 16:21 | 50.59842 | 5.22408 | 23090 ft | 294 kts | 109° |
| 2026-05-08 16:21 | 50.59207 | 5.25468 | 23087 ft | 294 kts | 109° |
| 2026-05-08 16:22 | 50.58571 | 5.28525 | 23087 ft | 294 kts | 109° |
| 2026-05-08 16:22 | 50.57935 | 5.31578 | 23084 ft | 294 kts | 109° |
| 2026-05-08 16:22 | 50.57298 | 5.34634 | 23086 ft | 294 kts | 109° |
| 2026-05-08 16:22 | 50.56660 | 5.37691 | 23085 ft | 294 kts | 109° |
| 2026-05-08 16:23 | 50.56020 | 5.40749 | 23086 ft | 294 kts | 109° |
| 2026-05-08 16:23 | 50.55381 | 5.43803 | 23084 ft | 294 kts | 109° |
| 2026-05-08 16:23 | 50.54741 | 5.46851 | 23087 ft | 294 kts | 109° |
| 2026-05-08 16:23 | 50.54100 | 5.49902 | 23087 ft | 294 kts | 109° |
| 2026-05-08 16:24 | 50.53458 | 5.52951 | 23087 ft | 294 kts | 109° |
| 2026-05-08 16:24 | 50.52816 | 5.55998 | 23089 ft | 294 kts | 109° |
| 2026-05-08 16:24 | 50.52173 | 5.59045 | 23090 ft | 294 kts | 109° |
| 2026-05-08 16:24 | 50.51529 | 5.62093 | 23091 ft | 294 kts | 109° |
| 2026-05-08 16:25 | 50.50962 | 5.65174 | 23091 ft | 294 kts | 107° |
| 2026-05-08 16:25 | 50.50385 | 5.68252 | 23091 ft | 294 kts | 108° |
| 2026-05-08 16:25 | 50.49800 | 5.71329 | 23096 ft | 294 kts | 107° |
| 2026-05-08 16:25 | 50.49225 | 5.74409 | 23097 ft | 294 kts | 107° |
| 2026-05-08 16:26 | 50.48651 | 5.77491 | 23097 ft | 294 kts | 107° |
| 2026-05-08 16:26 | 50.48075 | 5.80571 | 23097 ft | 294 kts | 107° |
| 2026-05-08 16:26 | 50.47496 | 5.83650 | 23100 ft | 294 kts | 107° |
| 2026-05-08 16:26 | 50.46917 | 5.86730 | 23099 ft | 294 kts | 107° |
| 2026-05-08 16:27 | 50.46337 | 5.89809 | 23101 ft | 294 kts | 107° |
| 2026-05-08 16:27 | 50.45757 | 5.92887 | 23104 ft | 294 kts | 108° |
| 2026-05-08 16:27 | 50.45176 | 5.95961 | 23104 ft | 294 kts | 108° |
| 2026-05-08 16:27 | 50.44601 | 5.99000 | 23100 ft | 294 kts | 108° |
| 2026-05-08 16:28 | 50.44015 | 6.02089 | 23102 ft | 294 kts | 108° |
| 2026-05-08 16:28 | 50.43435 | 6.05147 | 23100 ft | 294 kts | 108° |
| 2026-05-08 16:28 | 50.42850 | 6.08224 | 23104 ft | 294 kts | 108° |
| 2026-05-08 16:28 | 50.42265 | 6.11297 | 23101 ft | 295 kts | 108° |
| 2026-05-08 16:29 | 50.41677 | 6.14377 | 23101 ft | 295 kts | 108° |
| 2026-05-08 16:29 | 50.41090 | 6.17450 | 23100 ft | 295 kts | 108° |
| 2026-05-08 16:29 | 50.40500 | 6.20529 | 23100 ft | 295 kts | 108° |
| 2026-05-08 16:29 | 50.39910 | 6.23606 | 23101 ft | 295 kts | 108° |
| 2026-05-08 16:30 | 50.39320 | 6.26681 | 23100 ft | 295 kts | 108° |
| 2026-05-08 16:30 | 50.38729 | 6.29756 | 23097 ft | 295 kts | 108° |
| 2026-05-08 16:30 | 50.38137 | 6.32828 | 23098 ft | 295 kts | 108° |
| 2026-05-08 16:30 | 50.37543 | 6.35906 | 23101 ft | 295 kts | 108° |
| 2026-05-08 16:31 | 50.36947 | 6.38975 | 23099 ft | 295 kts | 108° |
| 2026-05-08 16:31 | 50.36351 | 6.42047 | 23101 ft | 295 kts | 107° |
| 2026-05-08 16:31 | 50.35814 | 6.45148 | 23098 ft | 295 kts | 107° |
| 2026-05-08 16:31 | 50.35246 | 6.48228 | 23098 ft | 295 kts | 108° |
| 2026-05-08 16:32 | 50.34677 | 6.51317 | 23103 ft | 295 kts | 107° |
| 2026-05-08 16:32 | 50.34122 | 6.54406 | 23100 ft | 295 kts | 107° |
| 2026-05-08 16:32 | 50.33567 | 6.57501 | 23104 ft | 295 kts | 107° |
| 2026-05-08 16:32 | 50.33006 | 6.60596 | 23102 ft | 295 kts | 107° |
| 2026-05-08 16:33 | 50.32444 | 6.63684 | 23098 ft | 295 kts | 107° |
| 2026-05-08 16:33 | 50.31882 | 6.66777 | 23101 ft | 296 kts | 108° |
| 2026-05-08 16:33 | 50.31320 | 6.69872 | 23098 ft | 296 kts | 107° |
| 2026-05-08 16:33 | 50.30755 | 6.72965 | 23094 ft | 296 kts | 108° |
| 2026-05-08 16:34 | 50.30190 | 6.76058 | 23093 ft | 296 kts | 108° |
| 2026-05-08 16:34 | 50.29625 | 6.79150 | 23092 ft | 296 kts | 108° |
| 2026-05-08 16:34 | 50.29058 | 6.82241 | 23090 ft | 296 kts | 108° |
| 2026-05-08 16:34 | 50.28490 | 6.85332 | 23088 ft | 296 kts | 108° |
| 2026-05-08 16:35 | 50.27922 | 6.88423 | 23089 ft | 296 kts | 108° |
| 2026-05-08 16:35 | 50.27352 | 6.91515 | 23088 ft | 296 kts | 108° |
| 2026-05-08 16:35 | 50.26790 | 6.94565 | 23088 ft | 296 kts | 108° |
| 2026-05-08 16:35 | 50.26211 | 6.97698 | 23086 ft | 296 kts | 108° |
| 2026-05-08 16:36 | 50.25639 | 7.00786 | 23085 ft | 296 kts | 108° |
| 2026-05-08 16:36 | 50.25065 | 7.03882 | 23083 ft | 296 kts | 108° |
| 2026-05-08 16:36 | 50.24499 | 7.06931 | 23084 ft | 296 kts | 108° |
| 2026-05-08 16:36 | 50.23916 | 7.10061 | 23089 ft | 296 kts | 108° |
| 2026-05-08 16:37 | 50.23347 | 7.13111 | 23086 ft | 296 kts | 108° |
| 2026-05-08 16:37 | 50.22763 | 7.16243 | 23085 ft | 297 kts | 108° |
| 2026-05-08 16:37 | 50.22185 | 7.19335 | 23084 ft | 297 kts | 108° |
| 2026-05-08 16:37 | 50.21614 | 7.22384 | 23083 ft | 297 kts | 108° |
| 2026-05-08 16:38 | 50.21034 | 7.25475 | 23087 ft | 297 kts | 108° |
| 2026-05-08 16:38 | 50.20453 | 7.28565 | 23084 ft | 297 kts | 108° |
| 2026-05-08 16:38 | 50.19871 | 7.31655 | 23089 ft | 297 kts | 108° |
| 2026-05-08 16:38 | 50.19245 | 7.34716 | 23087 ft | 296 kts | 110° |
| 2026-05-08 16:39 | 50.18600 | 7.37765 | 23090 ft | 296 kts | 109° |
| 2026-05-08 16:39 | 50.17969 | 7.40823 | 23086 ft | 296 kts | 109° |
| 2026-05-08 16:39 | 50.17329 | 7.43877 | 23093 ft | 296 kts | 110° |
| 2026-05-08 16:39 | 50.16679 | 7.46930 | 23093 ft | 296 kts | 110° |
| 2026-05-08 16:40 | 50.16032 | 7.49982 | 23093 ft | 296 kts | 109° |
| 2026-05-08 16:40 | 50.15386 | 7.53031 | 23092 ft | 296 kts | 109° |
| 2026-05-08 16:40 | 50.14739 | 7.56082 | 23095 ft | 297 kts | 109° |
| 2026-05-08 16:40 | 50.14090 | 7.59134 | 23098 ft | 297 kts | 110° |
| 2026-05-08 16:41 | 50.13440 | 7.62185 | 23098 ft | 296 kts | 109° |
| 2026-05-08 16:41 | 50.12789 | 7.65235 | 23098 ft | 296 kts | 110° |
| 2026-05-08 16:41 | 50.12139 | 7.68282 | 23102 ft | 297 kts | 109° |
| 2026-05-08 16:42 | 50.10834 | 7.74374 | 23103 ft | 296 kts | 110° |
| 2026-05-08 16:42 | 50.10181 | 7.77421 | 23100 ft | 297 kts | 110° |
| 2026-05-08 16:42 | 50.09526 | 7.80468 | 23105 ft | 297 kts | 109° |
| 2026-05-08 16:42 | 50.08869 | 7.83521 | 23103 ft | 297 kts | 110° |
| 2026-05-08 16:43 | 50.08212 | 7.86567 | 23101 ft | 297 kts | 110° |
| 2026-05-08 16:43 | 50.07555 | 7.89612 | 23100 ft | 297 kts | 109° |
| 2026-05-08 16:43 | 50.07011 | 7.92704 | 23094 ft | 296 kts | 104° |
| 2026-05-08 16:43 | 50.06556 | 7.95832 | 23099 ft | 297 kts | 103° |
| 2026-05-08 16:44 | 50.06096 | 7.98962 | 23099 ft | 297 kts | 104° |
| 2026-05-08 16:44 | 50.05624 | 8.02087 | 23097 ft | 297 kts | 104° |
| 2026-05-08 16:44 | 50.05151 | 8.05211 | 23098 ft | 297 kts | 104° |
| 2026-05-08 16:44 | 50.04783 | 8.08372 | 23087 ft | 297 kts | 94° |
| 2026-05-08 16:45 | 50.04807 | 8.11536 | 23086 ft | 297 kts | 88° |
| 2026-05-08 16:45 | 50.04856 | 8.14752 | 23092 ft | 297 kts | 89° |
| 2026-05-08 16:45 | 50.04892 | 8.17958 | 23088 ft | 297 kts | 89° |
| 2026-05-08 16:45 | 50.04928 | 8.21184 | 23091 ft | 297 kts | 89° |
| 2026-05-08 16:46 | 50.04968 | 8.24402 | 23093 ft | 297 kts | 89° |
| 2026-05-08 16:46 | 50.05007 | 8.27616 | 23098 ft | 297 kts | 89° |
| 2026-05-08 16:46 | 50.05044 | 8.30836 | 23090 ft | 297 kts | 89° |
| 2026-05-08 16:46 | 50.05080 | 8.34050 | 23093 ft | 297 kts | 89° |
| 2026-05-08 16:47 | 50.05115 | 8.37266 | 23094 ft | 297 kts | 89° |
| 2026-05-08 16:47 | 50.05150 | 8.40484 | 23095 ft | 297 kts | 89° |
| 2026-05-08 16:47 | 50.05183 | 8.43700 | 23091 ft | 297 kts | 89° |
| 2026-05-08 16:47 | 50.05216 | 8.46917 | 23082 ft | 297 kts | 89° |
| 2026-05-08 16:48 | 50.05247 | 8.50131 | 23083 ft | 297 kts | 89° |
| 2026-05-08 16:48 | 50.05278 | 8.53342 | 23088 ft | 297 kts | 89° |
| 2026-05-08 16:48 | 50.05309 | 8.56556 | 23083 ft | 297 kts | 89° |
| 2026-05-08 16:48 | 50.05339 | 8.59767 | 23086 ft | 297 kts | 89° |
| 2026-05-08 16:49 | 50.05369 | 8.62979 | 23080 ft | 297 kts | 89° |
| 2026-05-08 16:49 | 50.05405 | 8.66188 | 23088 ft | 297 kts | 88° |
| 2026-05-08 16:49 | 50.05474 | 8.69396 | 23083 ft | 297 kts | 88° |
| 2026-05-08 16:49 | 50.05541 | 8.72604 | 23084 ft | 297 kts | 88° |
| 2026-05-08 16:50 | 50.05596 | 8.75810 | 23086 ft | 296 kts | 88° |
| 2026-05-08 16:50 | 50.05631 | 8.77934 | 23085 ft | 296 kts | 88° |
| 2026-05-08 16:50 | 50.05705 | 8.82225 | 23085 ft | 297 kts | 88° |
| 2026-05-08 16:50 | 50.05744 | 8.84348 | 23084 ft | 297 kts | 88° |
| 2026-05-08 16:51 | 50.05804 | 8.87560 | 23085 ft | 297 kts | 88° |
| 2026-05-08 16:51 | 50.05861 | 8.90768 | 23088 ft | 296 kts | 88° |
| 2026-05-08 16:51 | 50.05916 | 8.93971 | 23086 ft | 296 kts | 88° |
| 2026-05-08 16:51 | 50.05970 | 8.97180 | 23088 ft | 296 kts | 88° |
| 2026-05-08 16:52 | 50.06024 | 9.00385 | 23089 ft | 296 kts | 88° |
| 2026-05-08 16:52 | 50.06077 | 9.03593 | 23089 ft | 296 kts | 88° |
| 2026-05-08 16:52 | 50.06127 | 9.06797 | 23093 ft | 296 kts | 88° |
| 2026-05-08 16:52 | 50.06175 | 9.10006 | 23093 ft | 296 kts | 88° |
| 2026-05-08 16:53 | 50.06270 | 9.16409 | 23090 ft | 296 kts | 88° |
| 2026-05-08 16:53 | 50.06316 | 9.19612 | 23096 ft | 296 kts | 88° |
| 2026-05-08 16:53 | 50.06362 | 9.22813 | 23095 ft | 296 kts | 88° |
| 2026-05-08 16:54 | 50.06406 | 9.26013 | 23096 ft | 296 kts | 88° |
| 2026-05-08 16:54 | 50.06450 | 9.29212 | 23096 ft | 296 kts | 88° |
| 2026-05-08 16:54 | 50.06492 | 9.32412 | 23095 ft | 296 kts | 88° |
| 2026-05-08 16:54 | 50.06534 | 9.35611 | 23095 ft | 296 kts | 88° |
| 2026-05-08 16:55 | 50.06575 | 9.38808 | 23093 ft | 295 kts | 88° |
| 2026-05-08 16:55 | 50.06615 | 9.42003 | 23100 ft | 295 kts | 88° |
| 2026-05-08 16:55 | 50.06654 | 9.45196 | 23098 ft | 295 kts | 89° |
| 2026-05-08 16:55 | 50.06692 | 9.48389 | 23099 ft | 295 kts | 89° |
| 2026-05-08 16:56 | 50.06730 | 9.51576 | 23103 ft | 295 kts | 89° |
| 2026-05-08 16:56 | 50.06767 | 9.54767 | 23101 ft | 295 kts | 89° |
| 2026-05-08 16:56 | 50.06803 | 9.57960 | 23095 ft | 295 kts | 89° |
| 2026-05-08 16:56 | 50.06838 | 9.61150 | 23101 ft | 294 kts | 89° |
| 2026-05-08 16:57 | 50.06872 | 9.64336 | 23098 ft | 294 kts | 89° |
| 2026-05-08 16:57 | 50.06905 | 9.67516 | 23100 ft | 294 kts | 89° |
| 2026-05-08 16:57 | 50.06939 | 9.70700 | 23103 ft | 294 kts | 89° |
| 2026-05-08 16:57 | 50.06970 | 9.73889 | 23104 ft | 294 kts | 89° |
| 2026-05-08 16:58 | 50.07001 | 9.77067 | 23106 ft | 294 kts | 89° |
| 2026-05-08 16:58 | 50.07030 | 9.80206 | 23108 ft | 294 kts | 89° |
| 2026-05-08 16:58 | 50.07061 | 9.83384 | 23103 ft | 294 kts | 89° |
| 2026-05-08 16:58 | 50.07090 | 9.86561 | 23104 ft | 294 kts | 89° |
| 2026-05-08 16:59 | 50.07119 | 9.89736 | 23110 ft | 293 kts | 89° |
| 2026-05-08 16:59 | 50.07146 | 9.92910 | 23108 ft | 293 kts | 89° |
| 2026-05-08 16:59 | 50.07172 | 9.96084 | 23117 ft | 293 kts | 89° |
| 2026-05-08 16:59 | 50.07199 | 9.99257 | 23114 ft | 293 kts | 89° |
| 2026-05-08 17:00 | 50.07224 | 10.02425 | 23116 ft | 293 kts | 89° |
| 2026-05-08 17:00 | 50.07247 | 10.05597 | 23116 ft | 293 kts | 89° |
| 2026-05-08 17:00 | 50.07129 | 10.08789 | 22734 ft | 303 kts | 103° |
| 2026-05-08 17:00 | 50.06227 | 10.11761 | 22138 ft | 300 kts | 128° |
| 2026-05-08 17:01 | 50.04692 | 10.13729 | 21606 ft | 276 kts | 155° |
| 2026-05-08 17:01 | 50.02861 | 10.14645 | 21063 ft | 287 kts | 167° |
| 2026-05-08 17:01 | 50.00890 | 10.15466 | 20457 ft | 297 kts | 164° |
| 2026-05-08 17:01 | 49.98960 | 10.16703 | 19814 ft | 295 kts | 154° |
| 2026-05-08 17:02 | 49.97234 | 10.18212 | 19235 ft | 275 kts | 151° |
| 2026-05-08 17:02 | 49.95637 | 10.19592 | 18695 ft | 250 kts | 154° |
| 2026-05-08 17:02 | 49.94063 | 10.20804 | 18148 ft | 254 kts | 156° |
| 2026-05-08 17:02 | 49.92477 | 10.22013 | 17610 ft | 254 kts | 155° |
| 2026-05-08 17:03 | 49.90903 | 10.23248 | 17080 ft | 253 kts | 155° |
| 2026-05-08 17:03 | 49.89330 | 10.24489 | 16552 ft | 257 kts | 155° |
| 2026-05-08 17:03 | 49.87694 | 10.25770 | 15998 ft | 269 kts | 155° |
| 2026-05-08 17:03 | 49.86004 | 10.27091 | 15424 ft | 275 kts | 155° |
| 2026-05-08 17:04 | 49.84283 | 10.28437 | 14836 ft | 278 kts | 155° |
| 2026-05-08 17:04 | 49.82562 | 10.29783 | 14250 ft | 276 kts | 155° |
| 2026-05-08 17:04 | 49.80853 | 10.31116 | 13651 ft | 274 kts | 155° |
| 2026-05-08 17:04 | 49.79159 | 10.32437 | 13068 ft | 271 kts | 155° |
| 2026-05-08 17:05 | 49.77481 | 10.33745 | 12505 ft | 269 kts | 155° |
| 2026-05-08 17:05 | 49.75811 | 10.35046 | 11943 ft | 268 kts | 155° |
| 2026-05-08 17:05 | 49.74148 | 10.36340 | 11386 ft | 267 kts | 155° |
| 2026-05-08 17:05 | 49.72490 | 10.37628 | 10825 ft | 266 kts | 155° |
| 2026-05-08 17:06 | 49.70837 | 10.38913 | 10269 ft | 266 kts | 155° |
| 2026-05-08 17:06 | 49.69187 | 10.40193 | 9690 ft | 264 kts | 155° |
| 2026-05-08 17:06 | 49.67449 | 10.40930 | 9129 ft | 257 kts | 178° |
| 2026-05-08 17:06 | 49.65676 | 10.40986 | 8645 ft | 253 kts | 183° |
| 2026-05-08 17:07 | 49.63927 | 10.40940 | 8129 ft | 251 kts | 184° |
| 2026-05-08 17:07 | 49.62197 | 10.40886 | 7713 ft | 247 kts | 184° |
| 2026-05-08 17:07 | 49.60500 | 10.40832 | 7264 ft | 240 kts | 184° |
| 2026-05-08 17:07 | 49.58854 | 10.40791 | 6830 ft | 236 kts | 183° |
| 2026-05-08 17:08 | 49.57247 | 10.41301 | 6367 ft | 240 kts | 159° |
| 2026-05-08 17:08 | 49.55822 | 10.42626 | 5854 ft | 241 kts | 139° |
| 2026-05-08 17:08 | 49.54969 | 10.44805 | 5489 ft | 238 kts | 105° |
| 2026-05-08 17:08 | 49.54754 | 10.47304 | 5271 ft | 234 kts | 92° |
| 2026-05-08 17:09 | 49.54739 | 10.49741 | 5111 ft | 219 kts | 87° |
| 2026-05-08 17:09 | 49.54770 | 10.52040 | 5092 ft | 212 kts | 89° |
| 2026-05-08 17:09 | 49.54731 | 10.54292 | 5082 ft | 209 kts | 83° |
| 2026-05-08 17:09 | 49.54877 | 10.56503 | 5080 ft | 209 kts | 90° |
| 2026-05-08 17:10 | 49.54704 | 10.58705 | 5084 ft | 207 kts | 98° |
| 2026-05-08 17:10 | 49.54486 | 10.60908 | 5076 ft | 208 kts | 97° |
| 2026-05-08 17:10 | 49.54271 | 10.63124 | 4949 ft | 212 kts | 98° |
| 2026-05-08 17:10 | 49.54053 | 10.65327 | 4680 ft | 208 kts | 97° |
| 2026-05-08 17:11 | 49.53839 | 10.67502 | 4426 ft | 206 kts | 98° |
| 2026-05-08 17:11 | 49.53625 | 10.69667 | 4427 ft | 210 kts | 98° |
| 2026-05-08 17:11 | 49.53409 | 10.71878 | 4430 ft | 206 kts | 97° |
| 2026-05-08 17:11 | 49.53187 | 10.74155 | 4441 ft | 224 kts | 97° |
| 2026-05-08 17:12 | 49.52954 | 10.76524 | 4451 ft | 221 kts | 97° |
| 2026-05-08 17:12 | 49.52722 | 10.78885 | 4340 ft | 226 kts | 97° |
| 2026-05-08 17:12 | 49.52490 | 10.81236 | 4279 ft | 220 kts | 97° |
| 2026-05-08 17:12 | 49.52278 | 10.83365 | 4266 ft | 188 kts | 97° |
| 2026-05-08 17:13 | 49.52085 | 10.85318 | 4271 ft | 183 kts | 97° |
| 2026-05-08 17:13 | 49.51894 | 10.87263 | 4151 ft | 181 kts | 96° |
| 2026-05-08 17:13 | 49.51693 | 10.89348 | 3707 ft | 220 kts | 97° |
| 2026-05-08 17:13 | 49.51456 | 10.91743 | 3298 ft | 218 kts | 97° |
| 2026-05-08 17:14 | 49.51230 | 10.93954 | 2847 ft | 203 kts | 97° |
| 2026-05-08 17:14 | 49.51023 | 10.96054 | 2416 ft | 193 kts | 97° |
| 2026-05-08 17:14 | 49.50826 | 10.98014 | 2150 ft | 178 kts | 96° |
| 2026-05-08 17:14 | 49.50655 | 10.99815 | 1888 ft | 163 kts | 96° |
| 2026-05-08 17:15 | 49.50489 | 11.01484 | 1658 ft | 152 kts | 96° |
| 2026-05-08 17:15 | 49.50338 | 11.03004 | 1457 ft | 128 kts | 95° |
| 2026-05-08 17:15 | 49.50227 | 11.04129 | 1303 ft | 88 kts | 94° |
| 2026-05-08 17:15 | 49.50128 | 11.05089 | 1187 ft | 99 kts | 92° |
| 2026-05-08 17:16 | 49.50023 | 11.06175 | 1066 ft | 99 kts | 95° |
| 2026-05-08 17:16 | 49.49956 | 11.06960 | 1031 ft | 38 kts | 97° |
| 2026-05-08 17:16 | 49.49921 | 11.07028 | 1033 ft | 19 kts | 217° |
| 2026-05-08 17:16 | 49.49809 | 11.07061 | 1031 ft | 1 kts | 154° |
| 2026-05-08 17:18 | 49.49786 | 11.07078 | 1031 ft | 7 kts | 159° |
| 2026-05-08 17:19 | 49.49754 | 11.07099 | 1031 ft | 0 kts | 152° |
| 2026-05-08 17:19 | 49.49746 | 11.07131 | 1032 ft | 10 kts | 94° |
| 2026-05-08 17:19 | 49.49680 | 11.07233 | 1032 ft | 22 kts | 192° |
| 2026-05-08 17:19 | 49.49545 | 11.07201 | 1028 ft | 17 kts | 189° |
| 2026-05-08 17:20 | 49.49517 | 11.07044 | 1025 ft | 24 kts | 276° |
| 2026-05-08 17:20 | 49.49548 | 11.06934 | 1025 ft | 9 kts | 1° |
| 2026-05-08 17:20 | 49.49567 | 11.06939 | 1026 ft | 0 kts | 0° |
| 2026-05-08 17:22 | 49.49560 | 11.06939 | 1026 ft | 2 kts | 360° |
| 2026-05-08 17:22 | 49.49562 | 11.06941 | 1026 ft | 2 kts | 9° |
| 2026-05-08 17:23 | 49.49567 | 11.06942 | 1026 ft | 0 kts | 9° |